createdAt,value
2017-12-08T00:00:54.624Z,6.80
2017-12-08T00:01:54.640Z,7.60
2017-12-08T00:02:54.653Z,10.40
2017-12-08T00:03:54.666Z,10.10
2017-12-08T00:04:54.682Z,10.70
2017-12-08T00:05:54.695Z,11.40
2017-12-08T00:06:54.711Z,9.70
2017-12-08T00:07:54.724Z,14.60
2017-12-08T00:08:54.742Z,10.70
2017-12-08T00:09:54.759Z,13.70
2017-12-08T00:10:54.771Z,15.30
2017-12-08T00:11:54.786Z,11.50
2017-12-08T00:12:54.806Z,12.20
2017-12-08T00:13:54.819Z,12.70
2017-12-08T00:14:54.836Z,12.10
2017-12-08T00:15:54.846Z,14.50
2017-12-08T00:16:54.860Z,14.90
2017-12-08T00:17:54.882Z,14.70
2017-12-08T00:18:54.891Z,18.90
2017-12-08T00:19:54.908Z,17.70
2017-12-08T00:20:54.921Z,13.20
2017-12-08T00:21:54.936Z,15.10
2017-12-08T00:22:54.952Z,20.30
2017-12-08T00:23:54.966Z,18.00
2017-12-08T00:24:54.977Z,19.50
2017-12-08T00:25:54.994Z,17.40
2017-12-08T00:26:55.008Z,17.70
2017-12-08T00:27:55.025Z,20.20
2017-12-08T00:28:55.042Z,23.10
2017-12-08T00:29:55.212Z,16.20
2017-12-08T00:30:55.068Z,20.80
2017-12-08T00:31:55.083Z,26.90
2017-12-08T00:32:55.097Z,18.60
2017-12-08T00:33:55.114Z,19.00
2017-12-08T00:34:55.127Z,19.90
2017-12-08T00:35:55.145Z,19.90
2017-12-08T00:36:55.154Z,22.80
2017-12-08T00:37:55.174Z,17.70
2017-12-08T00:38:55.185Z,19.20
2017-12-08T00:39:55.202Z,21.50
2017-12-08T00:40:55.214Z,25.10
2017-12-08T00:41:55.236Z,21.90
2017-12-08T00:42:55.245Z,22.30
2017-12-08T00:43:55.257Z,18.40
2017-12-08T00:44:55.272Z,20.30
2017-12-08T00:45:55.290Z,20.80
2017-12-08T00:46:55.302Z,22.10
2017-12-08T00:47:55.318Z,24.40
2017-12-08T00:48:55.336Z,18.10
2017-12-08T00:49:55.347Z,25.00
2017-12-08T00:50:55.361Z,22.80
2017-12-08T00:51:55.374Z,31.70
2017-12-08T00:52:55.388Z,18.70
2017-12-08T00:53:55.408Z,21.30
2017-12-08T00:54:55.423Z,21.20
2017-12-08T00:55:55.430Z,24.70
2017-12-08T00:56:55.448Z,20.60
2017-12-08T00:57:55.460Z,18.00
2017-12-08T00:58:55.476Z,24.50
2017-12-08T00:59:55.487Z,29.00
2017-12-08T01:00:55.505Z,27.20
2017-12-08T01:01:55.515Z,27.90
2017-12-08T01:02:55.535Z,21.10
2017-12-08T01:03:55.556Z,24.40
2017-12-08T01:04:55.565Z,21.00
2017-12-08T01:05:55.576Z,29.00
2017-12-08T01:06:55.592Z,31.10
2017-12-08T01:07:55.608Z,28.60
2017-12-08T01:08:55.623Z,25.70
2017-12-08T01:09:55.636Z,25.00
2017-12-08T01:10:55.650Z,24.80
2017-12-08T01:11:55.663Z,25.90
2017-12-08T01:12:55.680Z,30.10
2017-12-08T01:13:55.694Z,26.30
2017-12-08T01:14:55.708Z,25.60
2017-12-08T01:15:55.721Z,30.80
2017-12-08T01:16:55.739Z,31.70
2017-12-08T01:17:55.754Z,26.70
2017-12-08T01:18:55.768Z,32.10
2017-12-08T01:19:55.781Z,31.60
2017-12-08T01:20:55.795Z,29.60
2017-12-08T01:21:55.811Z,39.50
2017-12-08T01:22:55.826Z,33.30
2017-12-08T01:23:55.841Z,37.60
2017-12-08T01:24:55.850Z,31.70
2017-12-08T01:25:55.871Z,34.90
2017-12-08T01:26:55.882Z,26.10
2017-12-08T01:27:55.901Z,32.30
2017-12-08T01:28:55.909Z,36.70
2017-12-08T01:29:55.928Z,28.60
2017-12-08T01:30:55.941Z,37.40
2017-12-08T01:31:55.955Z,30.80
2017-12-08T01:32:55.969Z,35.60
2017-12-08T01:33:55.985Z,35.10
2017-12-08T01:34:56.001Z,27.10
2017-12-08T01:35:56.014Z,38.60
2017-12-08T01:36:56.028Z,29.00
2017-12-08T01:37:56.047Z,27.50
2017-12-08T01:38:56.065Z,29.20
2017-12-08T01:39:56.075Z,30.00
2017-12-08T01:40:56.090Z,35.90
2017-12-08T01:41:56.103Z,32.60
2017-12-08T01:42:56.115Z,35.30
2017-12-08T01:43:56.136Z,31.30
2017-12-08T01:44:56.146Z,29.10
2017-12-08T01:45:56.160Z,33.00
2017-12-08T01:46:56.187Z,30.90
2017-12-08T01:47:56.191Z,32.10
2017-12-08T01:48:56.206Z,35.60
2017-12-08T01:49:56.234Z,31.10
2017-12-08T01:50:56.235Z,35.30
2017-12-08T01:51:56.250Z,31.60
2017-12-08T01:52:56.264Z,26.60
2017-12-08T01:53:56.280Z,22.10
2017-12-08T01:54:56.295Z,28.00
2017-12-08T01:55:56.310Z,24.00
2017-12-08T01:56:56.321Z,24.00
2017-12-08T01:57:56.343Z,26.30
2017-12-08T01:58:56.350Z,24.90
2017-12-08T01:59:56.365Z,16.50
2017-12-08T02:00:56.380Z,19.30
2017-12-08T02:01:56.394Z,24.40
2017-12-08T02:02:56.411Z,22.60
2017-12-08T02:03:56.427Z,18.90
2017-12-08T02:04:56.440Z,22.00
2017-12-08T02:05:56.454Z,22.90
2017-12-08T02:06:56.468Z,18.30
2017-12-08T02:07:56.483Z,19.50
2017-12-08T02:08:56.497Z,17.30
2017-12-08T02:09:56.514Z,17.00
2017-12-08T02:10:56.527Z,15.20
2017-12-08T02:11:56.545Z,15.90
2017-12-08T02:12:56.560Z,13.80
2017-12-08T02:13:56.568Z,15.30
2017-12-08T02:14:56.613Z,15.10
2017-12-08T02:15:56.598Z,14.00
2017-12-08T02:16:56.613Z,14.50
2017-12-08T02:17:56.626Z,14.60
2017-12-08T02:18:56.643Z,12.90
2017-12-08T02:19:56.658Z,16.30
2017-12-08T02:20:56.669Z,16.10
2017-12-08T02:21:56.686Z,16.80
2017-12-08T02:22:56.701Z,20.40
2017-12-08T02:23:56.711Z,16.30
2017-12-08T02:24:56.727Z,17.60
2017-12-08T02:25:56.742Z,17.90
2017-12-08T02:26:56.761Z,17.90
2017-12-08T02:27:56.774Z,24.40
2017-12-08T02:28:56.786Z,18.50
2017-12-08T02:29:56.801Z,28.20
2017-12-08T02:30:56.814Z,29.50
2017-12-08T02:31:56.836Z,28.70
2017-12-08T02:32:56.843Z,29.60
2017-12-08T02:33:56.856Z,27.80
2017-12-08T02:34:56.874Z,34.10
2017-12-08T02:35:56.884Z,26.00
2017-12-08T02:36:56.904Z,30.80
2017-12-08T02:37:56.914Z,24.50
2017-12-08T02:38:56.930Z,31.80
2017-12-08T02:39:56.943Z,27.50
2017-12-08T02:40:56.956Z,29.60
2017-12-08T02:41:56.974Z,30.90
2017-12-08T02:42:56.986Z,29.40
2017-12-08T02:43:57.005Z,28.60
2017-12-08T02:44:57.014Z,31.50
2017-12-08T02:45:57.031Z,28.50
2017-12-08T02:46:57.047Z,30.70
2017-12-08T02:47:57.058Z,32.90
2017-12-08T02:48:57.075Z,31.90
2017-12-08T02:49:57.087Z,26.30
2017-12-08T02:50:57.101Z,29.10
2017-12-08T02:51:57.115Z,31.10
2017-12-08T02:52:57.131Z,27.90
2017-12-08T02:53:57.144Z,29.90
2017-12-08T02:54:57.158Z,33.30
2017-12-08T02:55:57.172Z,36.30
2017-12-08T02:56:57.187Z,24.70
2017-12-08T02:57:57.203Z,35.30
2017-12-08T02:58:57.214Z,32.20
2017-12-08T02:59:57.231Z,29.70
2017-12-08T03:00:57.244Z,28.70
2017-12-08T03:01:57.257Z,27.80
2017-12-08T03:02:57.273Z,29.10
2017-12-08T03:03:57.286Z,30.80
2017-12-08T03:04:57.301Z,29.70
2017-12-08T03:05:57.317Z,27.70
2017-12-08T03:06:57.330Z,31.60
2017-12-08T03:07:57.344Z,27.40
2017-12-08T03:08:57.359Z,27.60
2017-12-08T03:09:57.375Z,32.70
2017-12-08T03:10:57.388Z,30.70
2017-12-08T03:11:57.404Z,36.30
2017-12-08T03:12:57.436Z,29.80
2017-12-08T03:13:57.431Z,37.10
2017-12-08T03:14:57.444Z,28.00
2017-12-08T03:15:57.463Z,36.80
2017-12-08T03:16:57.475Z,32.60
2017-12-08T03:17:57.488Z,27.60
2017-12-08T03:18:57.506Z,27.50
2017-12-08T03:19:57.519Z,32.30
2017-12-08T03:20:57.532Z,31.30
2017-12-08T03:21:57.546Z,35.10
2017-12-08T03:22:57.562Z,28.80
2017-12-08T03:23:57.575Z,26.60
2017-12-08T03:24:57.591Z,35.30
2017-12-08T03:25:57.603Z,35.70
2017-12-08T03:26:57.619Z,33.10
2017-12-08T03:27:57.632Z,31.90
2017-12-08T03:28:57.645Z,30.90
2017-12-08T03:29:57.660Z,25.90
2017-12-08T03:30:57.679Z,35.60
2017-12-08T03:31:57.692Z,31.30
2017-12-08T03:32:57.702Z,33.00
2017-12-08T03:33:57.717Z,23.50
2017-12-08T03:34:57.731Z,24.60
2017-12-08T03:35:57.747Z,25.60
2017-12-08T03:36:57.761Z,28.70
2017-12-08T03:37:57.774Z,29.20
2017-12-08T03:38:57.793Z,32.60
2017-12-08T03:39:57.803Z,27.30
2017-12-08T03:40:57.822Z,30.60
2017-12-08T03:41:57.832Z,32.00
2017-12-08T03:42:57.848Z,27.00
2017-12-08T03:43:57.865Z,32.00
2017-12-08T03:44:57.877Z,34.10
2017-12-08T03:45:57.890Z,26.30
2017-12-08T03:46:57.903Z,25.90
2017-12-08T03:47:57.917Z,28.30
2017-12-08T03:48:57.932Z,33.10
2017-12-08T03:49:57.946Z,29.60
2017-12-08T03:50:57.961Z,26.90
2017-12-08T03:51:57.974Z,26.40
2017-12-08T03:52:57.987Z,31.60
2017-12-08T03:53:58.002Z,30.80
2017-12-08T03:54:58.017Z,27.90
2017-12-08T03:55:58.031Z,24.70
2017-12-08T03:56:58.043Z,28.80
2017-12-08T03:57:58.058Z,25.50
2017-12-08T03:58:58.072Z,28.60
2017-12-08T03:59:58.090Z,30.80
2017-12-08T04:00:58.099Z,30.30
2017-12-08T04:01:58.114Z,26.60
2017-12-08T04:02:58.133Z,28.50
2017-12-08T04:03:58.146Z,27.00
2017-12-08T04:04:58.161Z,39.20
2017-12-08T04:05:58.173Z,30.30
2017-12-08T04:06:58.188Z,37.60
2017-12-08T04:07:58.199Z,30.40
2017-12-08T04:08:58.222Z,27.00
2017-12-08T04:09:58.229Z,29.50
2017-12-08T04:10:58.288Z,23.90
2017-12-08T04:11:58.261Z,30.00
2017-12-08T04:12:58.278Z,29.30
2017-12-08T04:13:58.498Z,25.90
2017-12-08T04:14:58.300Z,27.80
2017-12-08T04:15:58.316Z,25.30
2017-12-08T04:16:58.329Z,25.70
2017-12-08T04:17:58.340Z,24.40
2017-12-08T04:18:58.356Z,29.90
2017-12-08T04:19:58.370Z,33.00
2017-12-08T04:20:58.384Z,24.10
2017-12-08T04:21:58.402Z,25.30
2017-12-08T04:22:58.413Z,27.90
2017-12-08T04:23:58.431Z,25.00
2017-12-08T04:24:58.441Z,25.80
2017-12-08T04:25:58.456Z,27.50
2017-12-08T04:26:58.471Z,28.80
2017-12-08T04:27:58.484Z,24.90
2017-12-08T04:28:58.499Z,24.30
2017-12-08T04:29:58.515Z,29.60
2017-12-08T04:30:58.530Z,28.00
2017-12-08T04:31:58.542Z,18.80
2017-12-08T04:32:58.558Z,28.10
2017-12-08T04:33:58.573Z,28.00
2017-12-08T04:34:58.583Z,23.30
2017-12-08T04:35:58.598Z,21.50
2017-12-08T04:36:58.618Z,23.70
2017-12-08T04:37:58.626Z,25.50
2017-12-08T04:38:58.653Z,23.80
2017-12-08T04:39:58.656Z,25.40
2017-12-08T04:40:58.668Z,20.00
2017-12-08T04:41:58.684Z,26.50
2017-12-08T04:42:58.697Z,24.90
2017-12-08T04:43:58.714Z,24.90
2017-12-08T04:44:58.726Z,26.70
2017-12-08T04:45:58.744Z,20.30
2017-12-08T04:46:58.752Z,19.00
2017-12-08T04:47:58.770Z,14.90
2017-12-08T04:48:58.784Z,18.10
2017-12-08T04:49:58.795Z,14.00
2017-12-08T04:50:58.811Z,13.00
2017-12-08T04:51:58.826Z,13.50
2017-12-08T04:52:58.840Z,15.70
2017-12-08T04:53:58.855Z,9.40
2017-12-08T04:54:58.868Z,12.70
2017-12-08T04:55:58.885Z,8.90
2017-12-08T04:56:58.893Z,9.90
2017-12-08T04:57:58.909Z,7.10
2017-12-08T04:58:58.922Z,9.80
2017-12-08T04:59:58.939Z,9.30
2017-12-08T05:00:58.958Z,9.10
2017-12-08T05:01:58.965Z,7.80
2017-12-08T05:02:58.979Z,6.10
2017-12-08T05:03:58.993Z,5.70
2017-12-08T05:04:59.005Z,12.50
2017-12-08T05:05:59.023Z,6.30
2017-12-08T05:06:59.033Z,7.10
2017-12-08T05:07:59.048Z,6.90
2017-12-08T05:08:59.061Z,8.50
2017-12-08T05:09:59.073Z,14.30
2017-12-08T05:10:59.090Z,10.00
2017-12-08T05:11:59.102Z,9.00
2017-12-08T05:12:59.118Z,12.60
2017-12-08T05:13:59.129Z,12.70
2017-12-08T05:14:59.142Z,18.70
2017-12-08T05:15:59.154Z,16.10
2017-12-08T05:16:59.168Z,14.80
2017-12-08T05:17:59.190Z,17.20
2017-12-08T05:18:59.199Z,8.90
2017-12-08T05:19:59.212Z,15.50
2017-12-08T05:20:59.226Z,14.70
2017-12-08T05:21:59.240Z,16.50
2017-12-08T05:22:59.252Z,16.00
2017-12-08T05:23:59.291Z,16.50
2017-12-08T05:24:59.280Z,14.00
2017-12-08T05:25:59.292Z,19.90
2017-12-08T05:26:59.308Z,15.40
2017-12-08T05:27:59.319Z,19.10
2017-12-08T05:28:59.331Z,18.00
2017-12-08T05:29:59.344Z,26.90
2017-12-08T05:30:59.360Z,34.00
2017-12-08T05:31:59.375Z,34.20
2017-12-08T05:32:59.383Z,32.90
2017-12-08T05:33:59.399Z,29.00
2017-12-08T05:34:59.415Z,34.60
2017-12-08T05:35:59.427Z,28.40
2017-12-08T05:36:59.440Z,25.70
2017-12-08T05:37:59.452Z,33.80
2017-12-08T05:38:59.468Z,26.50
2017-12-08T05:39:59.480Z,24.10
2017-12-08T05:40:59.493Z,29.90
2017-12-08T05:41:59.506Z,23.00
2017-12-08T05:42:59.527Z,30.20
2017-12-08T05:43:59.534Z,22.70
2017-12-08T05:44:59.545Z,21.60
2017-12-08T05:45:59.559Z,21.20
2017-12-08T05:46:59.574Z,25.50
2017-12-08T05:47:59.588Z,22.70
2017-12-08T05:48:59.601Z,27.70
2017-12-08T05:49:59.618Z,22.50
2017-12-08T05:50:59.632Z,25.10
2017-12-08T05:51:59.645Z,18.60
2017-12-08T05:52:59.657Z,25.30
2017-12-08T05:53:59.670Z,24.20
2017-12-08T05:54:59.680Z,22.00
2017-12-08T05:55:59.697Z,21.60
2017-12-08T05:56:59.708Z,22.60
2017-12-08T05:57:59.721Z,22.50
2017-12-08T05:58:59.738Z,20.20
2017-12-08T05:59:59.752Z,21.00
2017-12-08T06:00:59.764Z,19.80
2017-12-08T06:01:59.775Z,20.60
2017-12-08T06:02:59.788Z,18.60
2017-12-08T06:03:59.805Z,25.40
2017-12-08T06:04:59.818Z,17.80
2017-12-08T06:05:59.829Z,17.10
2017-12-08T06:06:59.847Z,18.80
2017-12-08T06:07:59.860Z,21.60
2017-12-08T06:08:59.872Z,15.80
2017-12-08T06:09:59.886Z,20.90
2017-12-08T06:10:59.899Z,24.90
2017-12-08T06:11:59.912Z,20.00
2017-12-08T06:12:59.924Z,16.50
2017-12-08T06:13:59.941Z,18.50
2017-12-08T06:14:59.953Z,24.10
2017-12-08T06:15:59.969Z,21.80
2017-12-08T06:16:59.981Z,19.70
2017-12-08T06:17:59.995Z,26.70
2017-12-08T06:19:00.012Z,24.80
2017-12-08T06:20:00.021Z,26.10
2017-12-08T06:21:00.034Z,27.10
2017-12-08T06:22:00.048Z,21.60
2017-12-08T06:23:00.062Z,21.10
2017-12-08T06:24:00.075Z,23.00
2017-12-08T06:25:00.087Z,24.40
2017-12-08T06:26:00.109Z,25.80
2017-12-08T06:27:00.114Z,23.10
2017-12-08T06:28:00.129Z,25.10
2017-12-08T06:29:00.151Z,28.30
2017-12-08T06:30:00.157Z,22.50
2017-12-08T06:31:00.173Z,21.00
2017-12-08T06:32:00.189Z,24.80
2017-12-08T06:33:00.197Z,19.40
2017-12-08T06:34:00.246Z,23.00
2017-12-08T06:35:00.225Z,22.80
2017-12-08T06:36:00.247Z,23.90
2017-12-08T06:37:00.251Z,22.30
2017-12-08T06:38:00.265Z,29.80
2017-12-08T06:39:00.279Z,24.00
2017-12-08T06:40:00.294Z,24.60
2017-12-08T06:41:00.306Z,19.90
2017-12-08T06:42:00.322Z,18.00
2017-12-08T06:43:00.334Z,24.10
2017-12-08T06:44:00.346Z,24.40
2017-12-08T06:45:00.363Z,18.70
2017-12-08T06:46:00.377Z,25.20
2017-12-08T06:47:00.390Z,19.60
2017-12-08T06:48:00.401Z,18.70
2017-12-08T06:49:00.413Z,23.50
2017-12-08T06:50:00.430Z,18.70
2017-12-08T06:51:00.445Z,22.90
2017-12-08T06:52:00.460Z,28.50
2017-12-08T06:53:00.471Z,19.30
2017-12-08T06:54:00.484Z,23.10
2017-12-08T06:55:00.498Z,21.90
2017-12-08T06:56:00.513Z,19.10
2017-12-08T06:57:00.525Z,21.40
2017-12-08T06:58:00.537Z,18.90
2017-12-08T06:59:00.554Z,16.60
2017-12-08T07:00:00.569Z,17.10
2017-12-08T07:01:00.579Z,19.50
2017-12-08T07:02:00.598Z,23.70
2017-12-08T07:03:00.611Z,17.00
2017-12-08T07:04:00.630Z,16.10
2017-12-08T07:05:00.633Z,17.60
2017-12-08T07:06:00.649Z,20.00
2017-12-08T07:07:00.665Z,16.40
2017-12-08T07:08:00.678Z,21.40
2017-12-08T07:09:00.694Z,17.90
2017-12-08T07:10:00.703Z,20.00
2017-12-08T07:11:00.719Z,24.70
2017-12-08T07:12:00.734Z,17.70
2017-12-08T07:13:00.746Z,15.10
2017-12-08T07:14:00.758Z,15.80
2017-12-08T07:15:00.774Z,15.00
2017-12-08T07:16:00.787Z,16.40
2017-12-08T07:17:00.802Z,20.00
2017-12-08T07:18:00.813Z,19.20
2017-12-08T07:19:00.831Z,15.40
2017-12-08T07:20:00.854Z,14.60
2017-12-08T07:21:00.859Z,15.80
2017-12-08T07:22:00.869Z,16.80
2017-12-08T07:23:00.884Z,17.10
2017-12-08T07:24:00.896Z,18.40
2017-12-08T07:25:00.921Z,17.40
2017-12-08T07:26:00.924Z,16.10
2017-12-08T07:27:00.938Z,17.40
2017-12-08T07:28:00.955Z,18.60
2017-12-08T07:29:00.968Z,19.90
2017-12-08T07:30:00.986Z,19.50
2017-12-08T07:31:00.991Z,18.30
2017-12-08T07:32:01.006Z,15.00
2017-12-08T07:33:01.021Z,16.20
2017-12-08T07:34:01.032Z,14.80
2017-12-08T07:35:01.045Z,18.50
2017-12-08T07:36:01.063Z,21.50
2017-12-08T07:37:01.071Z,15.10
2017-12-08T07:38:01.086Z,20.30
2017-12-08T07:39:01.100Z,22.90
2017-12-08T07:40:01.111Z,18.40
2017-12-08T07:41:01.127Z,21.20
2017-12-08T07:42:01.139Z,17.20
2017-12-08T07:43:01.157Z,20.60
2017-12-08T07:44:01.167Z,22.20
2017-12-08T07:45:01.182Z,35.00
2017-12-08T07:46:01.191Z,19.60
2017-12-08T07:47:01.207Z,16.40
2017-12-08T07:48:01.221Z,14.60
2017-12-08T07:49:01.234Z,23.70
2017-12-08T07:50:01.249Z,19.00
2017-12-08T07:51:01.260Z,12.70
2017-12-08T07:52:01.274Z,19.10
2017-12-08T07:53:01.286Z,15.80
2017-12-08T07:54:01.301Z,16.50
2017-12-08T07:55:01.314Z,21.50
2017-12-08T07:56:01.326Z,15.50
2017-12-08T07:57:01.341Z,18.30
2017-12-08T07:58:01.354Z,18.50
2017-12-08T07:59:01.366Z,18.30
2017-12-08T08:00:01.380Z,16.20
2017-12-08T08:01:01.393Z,22.20
2017-12-08T08:02:01.405Z,20.60
2017-12-08T08:03:01.423Z,18.50
2017-12-08T08:04:01.433Z,17.00
2017-12-08T08:05:01.446Z,17.80
2017-12-08T08:06:01.459Z,18.10
2017-12-08T08:07:01.476Z,23.10
2017-12-08T08:08:01.489Z,21.50
2017-12-08T08:09:01.505Z,23.30
2017-12-08T08:10:01.517Z,19.30
2017-12-08T08:11:01.527Z,15.60
2017-12-08T08:12:01.541Z,17.40
2017-12-08T08:13:01.555Z,22.30
2017-12-08T08:14:01.572Z,19.30
2017-12-08T08:15:01.581Z,15.70
2017-12-08T08:16:01.595Z,18.50
2017-12-08T08:17:01.612Z,21.40
2017-12-08T08:18:01.622Z,12.90
2017-12-08T08:19:01.639Z,20.60
2017-12-08T08:20:01.650Z,20.80
2017-12-08T08:21:01.667Z,17.90
2017-12-08T08:22:01.676Z,17.90
2017-12-08T08:23:01.692Z,18.40
2017-12-08T08:24:01.705Z,24.50
2017-12-08T08:25:01.719Z,22.40
2017-12-08T08:26:01.732Z,25.30
2017-12-08T08:27:01.745Z,15.10
2017-12-08T08:28:01.759Z,19.00
2017-12-08T08:29:01.773Z,16.60
2017-12-08T08:30:01.789Z,21.90
2017-12-08T08:31:01.798Z,22.80
2017-12-08T08:32:01.814Z,21.20
2017-12-08T08:33:01.826Z,24.10
2017-12-08T08:34:01.847Z,19.70
2017-12-08T08:35:01.855Z,23.50
2017-12-08T08:36:01.869Z,20.10
2017-12-08T08:37:01.879Z,15.90
2017-12-08T08:38:01.894Z,23.20
2017-12-08T08:39:01.909Z,22.10
2017-12-08T08:40:01.927Z,19.40
2017-12-08T08:41:01.934Z,21.30
2017-12-08T08:42:01.957Z,24.10
2017-12-08T08:43:01.967Z,25.00
2017-12-08T08:44:02.019Z,22.10
2017-12-08T08:45:01.992Z,17.00
2017-12-08T08:46:02.006Z,20.90
2017-12-08T08:47:02.030Z,24.70
2017-12-08T08:48:02.034Z,18.40
2017-12-08T08:49:02.048Z,19.00
2017-12-08T08:50:02.063Z,21.50
2017-12-08T08:51:02.076Z,16.60
2017-12-08T08:52:02.090Z,22.10
2017-12-08T08:53:02.102Z,25.90
2017-12-08T08:54:02.117Z,21.00
2017-12-08T08:55:02.131Z,24.50
2017-12-08T08:56:02.145Z,21.70
2017-12-08T08:57:02.156Z,20.00
2017-12-08T08:58:02.170Z,19.20
2017-12-08T08:59:02.188Z,21.80
2017-12-08T09:00:02.199Z,29.00
2017-12-08T09:01:02.213Z,17.90
2017-12-08T09:02:02.225Z,19.90
2017-12-08T09:03:02.240Z,21.40
2017-12-08T09:04:02.255Z,20.60
2017-12-08T09:05:02.268Z,20.10
2017-12-08T09:06:02.301Z,24.40
2017-12-08T09:07:02.299Z,24.40
2017-12-08T09:08:02.311Z,24.40
2017-12-08T09:09:02.324Z,20.70
2017-12-08T09:10:02.339Z,20.40
2017-12-08T09:11:02.392Z,24.60
2017-12-08T09:12:02.376Z,24.50
2017-12-08T09:13:02.380Z,20.20
2017-12-08T09:14:02.395Z,20.90
2017-12-08T09:15:02.409Z,25.70
2017-12-08T09:16:02.424Z,18.60
2017-12-08T09:17:02.438Z,18.40
2017-12-08T09:18:02.454Z,25.60
2017-12-08T09:19:02.466Z,20.40
2017-12-08T09:20:02.513Z,19.20
2017-12-08T09:21:02.491Z,22.00
2017-12-08T09:22:02.507Z,19.80
2017-12-08T09:23:02.523Z,26.50
2017-12-08T09:24:02.536Z,23.10
2017-12-08T09:25:02.550Z,27.70
2017-12-08T09:26:02.563Z,19.70
2017-12-08T09:27:02.579Z,19.10
2017-12-08T09:28:02.596Z,23.80
2017-12-08T09:29:02.607Z,18.80
2017-12-08T09:30:02.624Z,17.00
2017-12-08T09:31:02.634Z,17.50
2017-12-08T09:32:02.649Z,21.10
2017-12-08T09:33:02.665Z,18.90
2017-12-08T09:34:02.677Z,17.30
2017-12-08T09:35:02.692Z,16.40
2017-12-08T09:36:02.712Z,21.50
2017-12-08T09:37:02.721Z,18.70
2017-12-08T09:38:02.739Z,25.50
2017-12-08T09:39:02.748Z,19.50
2017-12-08T09:40:02.763Z,21.00
2017-12-08T09:41:02.776Z,16.40
2017-12-08T09:42:02.792Z,17.50
2017-12-08T09:43:02.808Z,20.40
2017-12-08T09:44:02.821Z,18.80
2017-12-08T09:45:02.833Z,14.70
2017-12-08T09:46:02.852Z,17.40
2017-12-08T09:47:02.863Z,19.50
2017-12-08T09:48:02.879Z,14.60
2017-12-08T09:49:02.892Z,17.40
2017-12-08T09:50:02.919Z,18.00
2017-12-08T09:51:02.924Z,14.50
2017-12-08T09:52:02.940Z,18.70
2017-12-08T09:53:02.953Z,16.50
2017-12-08T09:54:02.992Z,17.90
2017-12-08T09:55:02.980Z,13.80
2017-12-08T09:56:02.995Z,14.10
2017-12-08T09:57:03.009Z,15.90
2017-12-08T09:58:03.024Z,16.70
2017-12-08T09:59:03.039Z,19.30
2017-12-08T10:00:03.051Z,15.20
2017-12-08T10:01:03.067Z,18.10
2017-12-08T10:02:03.080Z,14.70
2017-12-08T10:03:03.097Z,12.60
2017-12-08T10:04:03.111Z,21.00
2017-12-08T10:05:03.126Z,16.80
2017-12-08T10:06:03.142Z,15.70
2017-12-08T10:07:03.156Z,12.90
2017-12-08T10:08:03.170Z,14.10
2017-12-08T10:09:03.185Z,18.80
2017-12-08T10:10:03.390Z,15.60
2017-12-08T10:11:03.218Z,17.70
2017-12-08T10:12:03.230Z,12.80
2017-12-08T10:13:03.239Z,17.90
2017-12-08T10:14:03.256Z,14.00
2017-12-08T10:15:03.273Z,11.50
2017-12-08T10:16:03.289Z,14.60
2017-12-08T10:17:03.300Z,17.40
2017-12-08T10:18:03.317Z,15.30
2017-12-08T10:19:03.330Z,14.00
2017-12-08T10:20:03.343Z,17.60
2017-12-08T10:21:03.361Z,20.50
2017-12-08T10:22:03.375Z,14.50
2017-12-08T10:23:03.391Z,11.20
2017-12-08T10:24:03.402Z,14.60
2017-12-08T10:25:03.416Z,14.90
2017-12-08T10:26:03.435Z,15.00
2017-12-08T10:27:03.449Z,9.50
2017-12-08T10:28:03.461Z,16.10
2017-12-08T10:29:03.476Z,13.50
2017-12-08T10:30:03.491Z,12.80
2017-12-08T10:31:03.508Z,15.10
2017-12-08T10:32:03.531Z,9.70
2017-12-08T10:33:03.534Z,16.90
2017-12-08T10:34:03.551Z,8.60
2017-12-08T10:35:03.561Z,11.90
2017-12-08T10:36:03.581Z,12.40
2017-12-08T10:37:03.591Z,13.00
2017-12-08T10:38:03.606Z,16.40
2017-12-08T10:39:03.620Z,11.50
2017-12-08T10:40:03.635Z,8.10
2017-12-08T10:41:03.648Z,13.30
2017-12-08T10:42:03.662Z,11.20
2017-12-08T10:43:03.678Z,14.40
2017-12-08T10:44:03.693Z,11.80
2017-12-08T10:45:03.706Z,15.70
2017-12-08T10:46:03.722Z,10.60
2017-12-08T10:47:03.738Z,9.90
2017-12-08T10:48:03.758Z,17.30
2017-12-08T10:49:03.765Z,11.40
2017-12-08T10:50:03.781Z,11.60
2017-12-08T10:51:03.795Z,11.20
2017-12-08T10:52:03.815Z,8.10
2017-12-08T10:53:03.993Z,10.10
2017-12-08T10:54:03.837Z,11.50
2017-12-08T10:55:03.853Z,8.30
2017-12-08T10:56:03.868Z,14.20
2017-12-08T10:57:03.881Z,9.40
2017-12-08T10:58:03.893Z,12.60
2017-12-08T10:59:03.916Z,10.80
2017-12-08T11:00:03.925Z,13.50
2017-12-08T11:01:03.942Z,15.20
2017-12-08T11:02:03.957Z,12.80
2017-12-08T11:03:03.971Z,12.70
2017-12-08T11:04:03.985Z,9.60
2017-12-08T11:05:04.000Z,10.70
2017-12-08T11:06:04.017Z,12.80
2017-12-08T11:07:04.028Z,11.30
2017-12-08T11:08:04.045Z,10.30
2017-12-08T11:09:04.057Z,10.00
2017-12-08T11:10:04.075Z,12.80
2017-12-08T11:11:04.105Z,12.10
2017-12-08T11:12:04.104Z,12.70
2017-12-08T11:13:04.132Z,12.70
2017-12-08T11:14:04.137Z,9.60
2017-12-08T11:15:04.153Z,10.70
2017-12-08T11:16:04.165Z,8.10
2017-12-08T11:17:04.177Z,10.40
2017-12-08T11:18:04.191Z,10.20
2017-12-08T11:19:04.209Z,14.70
2017-12-08T11:20:04.224Z,11.00
2017-12-08T11:21:04.241Z,14.30
2017-12-08T11:22:04.252Z,10.10
2017-12-08T11:23:04.274Z,13.30
2017-12-08T11:24:04.286Z,9.10
2017-12-08T11:25:04.295Z,10.40
2017-12-08T11:26:04.310Z,9.80
2017-12-08T11:27:04.327Z,14.40
2017-12-08T11:28:04.338Z,13.10
2017-12-08T11:29:04.353Z,10.70
2017-12-08T11:30:04.369Z,10.30
2017-12-08T11:31:04.382Z,11.80
2017-12-08T11:32:04.395Z,12.90
2017-12-08T11:33:04.413Z,11.20
2017-12-08T11:34:04.425Z,13.80
2017-12-08T11:35:04.440Z,10.10
2017-12-08T11:36:04.454Z,11.20
2017-12-08T11:37:04.470Z,10.60
2017-12-08T11:38:04.480Z,12.00
2017-12-08T11:39:04.499Z,14.10
2017-12-08T11:40:04.527Z,13.80
2017-12-08T11:41:04.523Z,10.70
2017-12-08T11:42:04.540Z,15.00
2017-12-08T11:43:04.553Z,12.40
2017-12-08T11:44:04.597Z,11.20
2017-12-08T11:45:04.578Z,9.50
2017-12-08T11:46:04.594Z,12.50
2017-12-08T11:47:04.606Z,9.60
2017-12-08T11:48:04.622Z,14.20
2017-12-08T11:49:04.636Z,14.40
2017-12-08T11:50:04.653Z,10.50
2017-12-08T11:51:04.662Z,6.70
2017-12-08T11:52:04.676Z,8.80
2017-12-08T11:53:04.689Z,10.70
2017-12-08T11:54:04.706Z,11.00
2017-12-08T11:55:04.719Z,11.10
2017-12-08T11:56:04.733Z,10.20
2017-12-08T11:57:04.746Z,9.00
2017-12-08T11:58:04.776Z,7.90
2017-12-08T11:59:04.773Z,12.80
2017-12-08T12:00:04.789Z,15.90
2017-12-08T12:01:04.802Z,20.80
2017-12-08T12:02:04.817Z,27.90
2017-12-08T12:03:04.832Z,16.80
2017-12-08T12:04:04.844Z,13.30
2017-12-08T12:05:04.860Z,15.30
2017-12-08T12:06:04.874Z,13.50
2017-12-08T12:07:04.890Z,15.00
2017-12-08T12:08:04.908Z,9.10
2017-12-08T12:09:04.916Z,8.20
2017-12-08T12:10:04.939Z,12.10
2017-12-08T12:11:04.948Z,10.10
2017-12-08T12:12:04.959Z,11.70
2017-12-08T12:13:04.975Z,12.30
2017-12-08T12:14:04.989Z,11.60
2017-12-08T12:15:05.006Z,8.40
2017-12-08T12:16:05.021Z,12.90
2017-12-08T12:17:05.035Z,8.30
2017-12-08T12:18:05.047Z,8.50
2017-12-08T12:19:05.061Z,6.70
2017-12-08T12:20:05.079Z,11.70
2017-12-08T12:21:05.092Z,9.30
2017-12-08T12:22:05.108Z,6.20
2017-12-08T12:23:05.121Z,9.30
2017-12-08T12:24:05.134Z,8.20
2017-12-08T12:25:05.150Z,10.90
2017-12-08T12:26:05.167Z,8.70
2017-12-08T12:27:05.182Z,10.60
2017-12-08T12:28:05.196Z,12.50
2017-12-08T12:29:05.208Z,8.10
2017-12-08T12:30:05.223Z,8.50
2017-12-08T12:31:05.237Z,10.30
2017-12-08T12:32:05.250Z,10.20
2017-12-08T12:33:05.263Z,10.30
2017-12-08T12:34:05.279Z,12.40
2017-12-08T12:35:05.293Z,9.90
2017-12-08T12:36:05.332Z,7.20
2017-12-08T12:37:05.320Z,11.30
2017-12-08T12:38:05.333Z,11.00
2017-12-08T12:39:05.350Z,7.20
2017-12-08T12:40:05.363Z,9.20
2017-12-08T12:41:05.391Z,10.10
2017-12-08T12:42:05.396Z,13.90
2017-12-08T12:43:05.404Z,8.50
2017-12-08T12:44:05.419Z,9.50
2017-12-08T12:45:05.431Z,10.80
2017-12-08T12:46:05.447Z,10.40
2017-12-08T12:47:05.460Z,8.30
2017-12-08T12:48:05.474Z,13.20
2017-12-08T12:49:05.488Z,8.00
2017-12-08T12:50:05.501Z,13.30
2017-12-08T12:51:05.516Z,11.60
2017-12-08T12:52:05.532Z,8.50
2017-12-08T12:53:05.543Z,11.50
2017-12-08T12:54:05.560Z,7.40
2017-12-08T12:55:05.572Z,11.10